createdAt,value
2023-08-22T00:01:02.259Z,102073.38
2023-08-22T00:03:29.025Z,102076.38
2023-08-22T00:05:56.861Z,102078.22
2023-08-22T00:08:23.641Z,102071.03
2023-08-22T00:10:50.150Z,102063.69
2023-08-22T00:13:16.740Z,102071.38
2023-08-22T00:15:43.307Z,102065.34
2023-08-22T00:18:10.246Z,102060.34
2023-08-22T00:20:37.437Z,102067.84
2023-08-22T00:23:07.604Z,102058.00
2023-08-22T00:25:34.070Z,102065.50
2023-08-22T00:28:00.866Z,102063.84
2023-08-22T00:30:27.411Z,102064.69
2023-08-22T00:32:54.087Z,102056.66
2023-08-22T00:35:20.692Z,102054.16
2023-08-22T00:37:47.411Z,102040.97
2023-08-22T00:40:13.957Z,102040.28
2023-08-22T00:42:40.447Z,102036.63
2023-08-22T00:45:07.712Z,102030.28
2023-08-22T00:47:34.839Z,102027.44
2023-08-22T00:50:04.937Z,102023.56
2023-08-22T00:52:32.805Z,102016.56
2023-08-22T00:54:59.631Z,102017.94
2023-08-22T00:57:26.136Z,102016.59
2023-08-22T00:59:53.377Z,102017.91
2023-08-22T01:02:19.954Z,102017.22
2023-08-22T01:04:46.791Z,102020.88
2023-08-22T01:07:26.435Z,102025.75
2023-08-22T01:10:02.437Z,102030.97
2023-08-22T01:12:54.904Z,102021.94
2023-08-22T01:15:28.416Z,102024.59
2023-08-22T01:17:57.321Z,102031.44
2023-08-22T01:20:27.928Z,102041.44
2023-08-22T01:22:55.629Z,102046.78
2023-08-22T01:25:22.703Z,102039.94
2023-08-22T01:28:09.672Z,102036.63
2023-08-22T01:30:54.396Z,102029.09
2023-08-22T01:33:29.939Z,102012.41
2023-08-22T01:35:57.200Z,102020.94
2023-08-22T01:38:26.576Z,102014.41
2023-08-22T01:40:54.337Z,102012.41
2023-08-22T01:43:22.491Z,102004.06
2023-08-22T01:45:49.459Z,102018.09
2023-08-22T01:48:15.972Z,102018.44
2023-08-22T01:50:43.171Z,102014.59
2023-08-22T01:53:09.682Z,101997.56
2023-08-22T01:55:36.950Z,101985.22
2023-08-22T01:58:05.671Z,101973.19
2023-08-22T02:00:32.503Z,101959.13
2023-08-22T02:02:59.227Z,101934.59
2023-08-22T02:05:25.866Z,101926.06
2023-08-22T02:07:52.623Z,101923.69
2023-08-22T02:10:19.519Z,101928.19
2023-08-22T02:12:46.096Z,101929.38
2023-08-22T02:15:12.733Z,101936.38
2023-08-22T02:17:40.376Z,101946.75
2023-08-22T02:20:08.461Z,101952.09
2023-08-22T02:22:42.597Z,101947.72
2023-08-22T02:25:09.770Z,101944.72
2023-08-22T02:27:38.497Z,101949.72
2023-08-22T02:30:08.181Z,101944.03
2023-08-22T02:32:34.779Z,101941.03
2023-08-22T02:35:01.939Z,101932.66
2023-08-22T02:37:28.460Z,101949.50
2023-08-22T02:39:56.838Z,101958.56
2023-08-22T02:42:23.820Z,101961.06
2023-08-22T02:44:50.544Z,101971.75
2023-08-22T02:47:17.041Z,101969.25
2023-08-22T02:49:43.707Z,101976.94
2023-08-22T02:52:10.194Z,101987.13
2023-08-22T02:54:36.861Z,101980.09
2023-08-22T02:57:03.757Z,101971.41
2023-08-22T02:59:30.716Z,101965.25
2023-08-22T03:01:57.313Z,101967.06
2023-08-22T03:04:24.062Z,101974.47
2023-08-22T03:06:50.866Z,101959.06
2023-08-22T03:09:18.183Z,101969.09
2023-08-22T03:11:44.724Z,101966.06
2023-08-22T03:14:12.619Z,101961.72
2023-08-22T03:16:39.204Z,101960.91
2023-08-22T03:19:05.915Z,101958.41
2023-08-22T03:21:32.488Z,101961.72
2023-08-22T03:23:59.201Z,101956.38
2023-08-22T03:26:26.715Z,101952.41
2023-08-22T03:28:53.357Z,101955.06
2023-08-22T03:31:23.161Z,101951.38
2023-08-22T03:33:49.872Z,101955.94
2023-08-22T03:36:16.528Z,101956.41
2023-08-22T03:38:43.288Z,101961.28
2023-08-22T03:41:10.205Z,101957.78
2023-08-22T03:43:36.921Z,101948.25
2023-08-22T03:46:05.526Z,101942.59
2023-08-22T03:48:32.494Z,101944.56
2023-08-22T03:51:00.973Z,101950.41
2023-08-22T03:53:28.338Z,101954.09
2023-08-22T03:55:54.946Z,101946.22
2023-08-22T03:58:21.431Z,101954.75
2023-08-22T04:00:48.052Z,101952.44
2023-08-22T04:03:14.755Z,101951.09
2023-08-22T04:05:44.361Z,101954.09
2023-08-22T04:08:11.050Z,101949.91
2023-08-22T04:10:37.570Z,101940.41
2023-08-22T04:13:04.247Z,101938.72
2023-08-22T04:15:30.785Z,101942.38
2023-08-22T04:17:57.296Z,101945.75
2023-08-22T04:20:24.122Z,101943.72
2023-08-22T04:22:50.641Z,101941.72
2023-08-22T04:25:17.295Z,101942.75
2023-08-22T04:27:46.128Z,101938.56
2023-08-22T04:30:14.738Z,101936.06
2023-08-22T04:32:41.489Z,101938.22
2023-08-22T04:35:08.900Z,101946.06
2023-08-22T04:37:38.610Z,101932.56
2023-08-22T04:40:05.915Z,101936.41
2023-08-22T04:42:37.762Z,101940.06
2023-08-22T04:45:07.217Z,101937.75
2023-08-22T04:47:34.066Z,101940.91
2023-08-22T04:50:00.817Z,101940.06
2023-08-22T04:52:27.863Z,101934.59
2023-08-22T04:54:56.676Z,101937.44
2023-08-22T04:57:25.001Z,101926.41
2023-08-22T04:59:54.413Z,101935.09
2023-08-22T05:02:26.074Z,101936.75
2023-08-22T05:04:52.779Z,101933.41
2023-08-22T05:07:19.536Z,101932.22
2023-08-22T05:09:46.134Z,101923.22
2023-08-22T05:12:13.738Z,101939.44
2023-08-22T05:14:41.065Z,101934.38
2023-08-22T05:17:09.103Z,101936.06
2023-08-22T05:19:35.737Z,101930.56
2023-08-22T05:22:02.450Z,101935.56
2023-08-22T05:24:29.635Z,101935.56
2023-08-22T05:26:56.318Z,101941.09
2023-08-22T05:29:23.310Z,101942.25
2023-08-22T05:31:49.975Z,101937.41
2023-08-22T05:34:16.744Z,101933.56
2023-08-22T05:36:43.253Z,101940.59
2023-08-22T05:39:10.566Z,101937.41
2023-08-22T05:41:37.198Z,101928.38
2023-08-22T05:44:03.857Z,101936.06
2023-08-22T05:46:30.563Z,101933.53
2023-08-22T05:48:58.447Z,101940.56
2023-08-22T05:51:25.092Z,101930.03
2023-08-22T05:53:52.029Z,101929.19
2023-08-22T05:56:18.570Z,101933.38
2023-08-22T05:58:45.318Z,101932.06
2023-08-22T06:01:12.141Z,101936.06
2023-08-22T06:03:39.701Z,101944.28
2023-08-22T06:06:06.630Z,101938.59
2023-08-22T06:08:33.443Z,101934.09
2023-08-22T06:11:00.219Z,101931.84
2023-08-22T06:13:26.962Z,101930.19
2023-08-22T06:15:56.319Z,101924.50
2023-08-22T06:18:23.214Z,101916.78
2023-08-22T06:20:50.320Z,101915.09
2023-08-22T06:23:16.931Z,101922.34
2023-08-22T06:25:43.428Z,101917.50
2023-08-22T06:28:10.983Z,101926.66
2023-08-22T06:30:37.463Z,101929.16
2023-08-22T06:33:05.695Z,101933.16
2023-08-22T06:35:32.289Z,101929.75
2023-08-22T06:37:58.998Z,101934.41
2023-08-22T06:40:25.541Z,101928.59
2023-08-22T06:42:52.076Z,101928.41
2023-08-22T06:45:28.835Z,101933.22
2023-08-22T06:47:56.019Z,101932.34
2023-08-22T06:50:23.407Z,101934.78
2023-08-22T06:52:50.156Z,101940.38
2023-08-22T06:55:17.185Z,101930.88
2023-08-22T06:57:43.736Z,101940.78
2023-08-22T07:00:17.597Z,101938.72
2023-08-22T07:02:45.739Z,101937.19
2023-08-22T07:05:14.242Z,101932.78
2023-08-22T07:07:41.191Z,101920.06
2023-08-22T07:10:10.579Z,101925.34
2023-08-22T07:12:37.869Z,101924.97
2023-08-22T07:15:05.408Z,101923.34
2023-08-22T07:17:32.061Z,101921.97
2023-08-22T07:19:59.107Z,101921.97
2023-08-22T07:22:25.645Z,101908.88
2023-08-22T07:24:52.150Z,101916.94
2023-08-22T07:27:21.455Z,101909.00
2023-08-22T07:29:48.544Z,101904.19
2023-08-22T07:32:15.149Z,101906.50
2023-08-22T07:34:41.845Z,101895.78
2023-08-22T07:37:08.403Z,101906.94
2023-08-22T07:39:35.089Z,101918.03
2023-08-22T07:42:01.645Z,101916.72
2023-08-22T07:44:28.206Z,101918.50
2023-08-22T07:46:54.862Z,101916.06
2023-08-22T07:49:21.415Z,101903.69
2023-08-22T07:51:47.897Z,101917.09
2023-08-22T07:54:14.393Z,101914.78
2023-08-22T07:56:40.894Z,101911.38
2023-08-22T07:59:07.554Z,101913.13
2023-08-22T08:01:35.235Z,101915.00
2023-08-22T08:04:02.028Z,101928.66
2023-08-22T08:06:33.049Z,101920.81
2023-08-22T08:08:59.621Z,101923.38
2023-08-22T08:11:26.123Z,101928.06
2023-08-22T08:13:52.932Z,101929.91
2023-08-22T08:16:35.510Z,101929.00
2023-08-22T08:19:06.441Z,101937.19
2023-08-22T08:21:35.627Z,101928.09
2023-08-22T08:24:05.621Z,101931.50
2023-08-22T08:26:32.197Z,101921.16
2023-08-22T08:28:58.744Z,101921.00
2023-08-22T08:31:25.538Z,101925.56
2023-08-22T08:33:52.158Z,101921.38
2023-08-22T08:36:19.074Z,101918.97
2023-08-22T08:38:45.823Z,101918.78
2023-08-22T08:41:13.272Z,101926.13
2023-08-22T08:43:39.911Z,101932.50
2023-08-22T08:46:07.923Z,101933.53
2023-08-22T08:48:37.200Z,101933.59
2023-08-22T08:51:05.554Z,101937.75
2023-08-22T08:53:34.833Z,101937.97
2023-08-22T08:56:01.404Z,101938.34
2023-08-22T08:58:28.443Z,101937.31
2023-08-22T09:00:57.142Z,101934.66
2023-08-22T09:03:25.765Z,101941.31
2023-08-22T09:05:52.788Z,101944.66
2023-08-22T09:08:21.591Z,101940.53
2023-08-22T09:10:53.243Z,101949.72
2023-08-22T09:13:35.838Z,101943.63
2023-08-22T09:16:14.622Z,101939.50
2023-08-22T09:18:43.360Z,101944.00
2023-08-22T09:21:11.494Z,101939.47
2023-08-22T09:23:41.636Z,101940.31
2023-08-22T09:26:09.164Z,101939.91
2023-08-22T09:28:41.917Z,101935.34
2023-08-22T09:31:08.650Z,101938.06
2023-08-22T09:33:45.933Z,101933.72
2023-08-22T09:36:12.522Z,101938.69
2023-08-22T09:38:56.062Z,101941.41
2023-08-22T09:41:32.417Z,101948.66
2023-08-22T09:44:03.839Z,101934.41
2023-08-22T09:46:32.693Z,101942.97
2023-08-22T09:49:01.688Z,101934.69
2023-08-22T09:51:28.686Z,101929.75
2023-08-22T09:54:01.652Z,101926.50
2023-08-22T09:56:28.486Z,101914.53
2023-08-22T09:58:55.240Z,101920.31
2023-08-22T10:01:26.057Z,101916.44
2023-08-22T10:03:55.697Z,101922.44
2023-08-22T10:06:42.533Z,101927.84
2023-08-22T10:09:13.395Z,101923.09
2023-08-22T10:11:56.695Z,101922.03
2023-08-22T10:14:51.017Z,101921.25
2023-08-22T10:17:17.529Z,101926.66
2023-08-22T10:19:44.879Z,101920.66
2023-08-22T10:22:15.230Z,101919.63
2023-08-22T10:24:43.096Z,101917.75
2023-08-22T10:27:14.788Z,101920.47
2023-08-22T10:29:47.031Z,101919.19
2023-08-22T10:32:16.617Z,101919.59
2023-08-22T10:34:43.047Z,101909.88
2023-08-22T10:37:21.405Z,101913.38
2023-08-22T10:39:51.456Z,101904.66
2023-08-22T10:42:18.490Z,101906.56
2023-08-22T10:44:57.186Z,101897.63
2023-08-22T10:47:25.824Z,101914.22
2023-08-22T10:52:36.874Z,101906.47
2023-08-22T10:55:10.339Z,101887.41
2023-08-22T10:57:39.356Z,101906.91
2023-08-22T11:00:14.986Z,101901.59
2023-08-22T11:02:45.709Z,101891.06
2023-08-22T11:05:14.830Z,101915.56
2023-08-22T11:07:43.694Z,101885.25
2023-08-22T11:10:24.726Z,101889.22
2023-08-22T11:12:55.314Z,101872.53
2023-08-22T11:15:22.074Z,101881.22
2023-08-22T11:17:50.321Z,101866.47
2023-08-22T11:20:19.400Z,101866.94
2023-08-22T11:22:46.570Z,101894.91
2023-08-22T11:25:14.112Z,101893.75
2023-08-22T11:27:42.035Z,101885.91
2023-08-22T11:30:09.992Z,101879.28
2023-08-22T11:32:38.724Z,101866.31
2023-08-22T11:35:06.960Z,101865.88
2023-08-22T11:37:41.935Z,101865.97
2023-08-22T11:40:16.887Z,101878.69
2023-08-22T11:42:44.110Z,101876.63
2023-08-22T11:45:14.701Z,101883.44
2023-08-22T11:47:52.298Z,101899.50
2023-08-22T11:50:21.930Z,101867.41
2023-08-22T11:52:54.141Z,101846.84
2023-08-22T11:55:28.276Z,101862.28
2023-08-22T11:58:00.966Z,101872.34
2023-08-22T12:00:28.960Z,101870.25
2023-08-22T12:02:57.530Z,101851.25
2023-08-22T12:05:41.749Z,101842.66
2023-08-22T12:08:08.232Z,101855.00
2023-08-22T12:10:45.428Z,101834.41
2023-08-22T12:13:13.999Z,101815.19
2023-08-22T12:15:41.617Z,101817.03
2023-08-22T12:18:09.333Z,101826.50
2023-08-22T12:20:39.462Z,101816.56
2023-08-22T12:23:07.396Z,101817.16
2023-08-22T12:25:35.617Z,101803.75
2023-08-22T12:28:06.514Z,101801.47
2023-08-22T12:30:34.704Z,101812.13
2023-08-22T12:33:03.426Z,101813.16
2023-08-22T12:35:39.209Z,101802.31
2023-08-22T12:38:06.630Z,101811.94
2023-08-22T12:40:33.183Z,101804.31
2023-08-22T12:43:00.379Z,101807.94
2023-08-22T12:45:27.515Z,101785.44
2023-08-22T12:47:54.272Z,101753.75
2023-08-22T12:50:20.784Z,101753.25
2023-08-22T12:52:47.622Z,101738.91
2023-08-22T12:55:15.254Z,101755.00
2023-08-22T12:57:42.633Z,101764.66
2023-08-22T13:00:12.623Z,101766.41
2023-08-22T13:02:41.793Z,101747.78
2023-08-22T13:05:14.579Z,101761.91
2023-08-22T13:07:41.223Z,101735.75
2023-08-22T13:10:08.045Z,101713.00
2023-08-22T13:12:35.880Z,101715.78
2023-08-22T13:15:04.446Z,101720.38
2023-08-22T13:17:31.694Z,101736.69
2023-08-22T13:19:58.725Z,101732.91
2023-08-22T13:22:25.437Z,101724.56
2023-08-22T13:24:51.939Z,101733.53
2023-08-22T13:27:19.715Z,101730.16
2023-08-22T13:29:46.363Z,101729.59
2023-08-22T13:32:13.028Z,101740.50
2023-08-22T13:34:39.490Z,101735.13
2023-08-22T13:37:06.113Z,101731.94
2023-08-22T13:39:33.392Z,101718.88
2023-08-22T13:42:00.001Z,101718.53
2023-08-22T13:44:26.496Z,101721.22
2023-08-22T13:46:53.031Z,101721.38
2023-08-22T13:49:19.652Z,101737.53
2023-08-22T13:51:46.542Z,101741.72
2023-08-22T13:54:14.125Z,101732.41
2023-08-22T13:56:40.644Z,101722.63
2023-08-22T13:59:07.116Z,101727.47
2023-08-22T14:01:33.714Z,101728.16
2023-08-22T14:04:00.454Z,101734.91
2023-08-22T14:06:27.056Z,101686.00
2023-08-22T14:08:53.565Z,101697.69
2023-08-22T14:11:20.062Z,101711.34
2023-08-22T14:13:47.516Z,101718.31
2023-08-22T14:16:14.065Z,101713.53
2023-08-22T14:18:40.593Z,101694.16
2023-08-22T14:21:07.241Z,101688.56
2023-08-22T14:23:33.730Z,101687.97
2023-08-22T14:26:00.314Z,101700.38
2023-08-22T14:28:27.786Z,101683.56
2023-08-22T14:31:01.483Z,101673.25
2023-08-22T14:33:28.094Z,101661.75
2023-08-22T14:35:54.950Z,101672.66
2023-08-22T14:38:21.486Z,101670.69
2023-08-22T14:40:59.021Z,101658.16
2023-08-22T14:43:29.147Z,101668.19
2023-08-22T14:45:57.432Z,101662.63
2023-08-22T14:48:24.451Z,101652.97
2023-08-22T14:50:53.853Z,101662.50
2023-08-22T14:53:21.853Z,101660.75
2023-08-22T14:56:02.558Z,101662.81
2023-08-22T14:58:42.468Z,101659.97
2023-08-22T15:01:11.899Z,101669.16
2023-08-22T15:03:39.768Z,101662.28
2023-08-22T15:06:06.745Z,101659.97
2023-08-22T15:08:33.812Z,101662.81
2023-08-22T15:11:00.851Z,101659.13
2023-08-22T15:13:29.708Z,101653.91
2023-08-22T15:15:57.708Z,101650.25
2023-08-22T15:18:26.240Z,101641.75
2023-08-22T15:20:54.229Z,101639.44
2023-08-22T15:23:22.051Z,101648.63
2023-08-22T15:25:50.722Z,101640.97
2023-08-22T15:28:18.545Z,101639.84
2023-08-22T15:30:45.356Z,101651.53
2023-08-22T15:33:12.123Z,101649.78
2023-08-22T15:35:48.840Z,101656.69
2023-08-22T15:38:16.446Z,101641.72
2023-08-22T15:40:51.067Z,101650.34
2023-08-22T15:43:19.757Z,101650.09
2023-08-22T15:45:47.624Z,101655.94
2023-08-22T15:48:14.522Z,101646.72
2023-08-22T15:50:43.879Z,101648.53
2023-08-22T15:53:10.645Z,101647.41
2023-08-22T15:55:37.122Z,101634.22
2023-08-22T15:58:03.808Z,101638.75
2023-08-22T16:00:30.377Z,101633.13
2023-08-22T16:02:59.007Z,101637.81
2023-08-22T16:05:26.012Z,101635.16
2023-08-22T16:07:52.498Z,101635.81
2023-08-22T16:10:19.098Z,101628.69
2023-08-22T16:12:45.613Z,101626.22
2023-08-22T16:15:12.211Z,101644.41
2023-08-22T16:17:38.730Z,101648.84
2023-08-22T16:20:06.168Z,101647.75
2023-08-22T16:22:32.670Z,101656.13
2023-08-22T16:24:59.178Z,101658.66
2023-08-22T16:27:35.906Z,101654.28
2023-08-22T16:30:05.750Z,101632.78
2023-08-22T16:32:32.202Z,101626.84
2023-08-22T16:34:58.723Z,101637.47
2023-08-22T16:37:25.180Z,101635.06
2023-08-22T16:39:52.237Z,101641.50
2023-08-22T16:42:18.707Z,101653.06
2023-08-22T16:44:45.228Z,101642.44
2023-08-22T16:47:11.722Z,101632.03
2023-08-22T16:49:38.440Z,101633.97
2023-08-22T16:52:05.197Z,101625.16
2023-08-22T16:54:31.689Z,101635.03
2023-08-22T16:56:58.808Z,101656.84
2023-08-22T16:59:25.274Z,101670.50
2023-08-22T17:01:51.904Z,101664.28
2023-08-22T17:04:18.424Z,101645.94
2023-08-22T17:06:45.191Z,101659.84
2023-08-22T17:09:11.668Z,101661.75
2023-08-22T17:11:38.368Z,101671.28
2023-08-22T17:14:05.727Z,101680.16
2023-08-22T17:16:32.631Z,101675.19
2023-08-22T17:18:59.175Z,101669.78
2023-08-22T17:21:26.173Z,101662.94
2023-08-22T17:23:52.780Z,101671.16
2023-08-22T17:26:19.572Z,101668.59
2023-08-22T17:28:46.043Z,101668.94
2023-08-22T17:31:13.253Z,101679.09
2023-08-22T17:33:42.384Z,101684.97
2023-08-22T17:36:11.576Z,101671.78
2023-08-22T17:38:39.881Z,101712.69
2023-08-22T17:41:08.290Z,101711.44
2023-08-22T17:43:36.445Z,101720.38
2023-08-22T17:46:03.761Z,101727.09
2023-08-22T17:48:30.789Z,101732.63
2023-08-22T17:50:58.071Z,101741.13
2023-08-22T17:53:25.089Z,101755.69
2023-08-22T17:55:52.949Z,101757.47
2023-08-22T17:58:21.149Z,101773.34
2023-08-22T18:00:48.428Z,101776.50
2023-08-22T18:03:15.065Z,101784.50
2023-08-22T18:05:43.884Z,101779.81
2023-08-22T18:08:10.446Z,101786.56
2023-08-22T18:10:36.943Z,101788.63
2023-08-22T18:13:04.452Z,101787.94
2023-08-22T18:15:30.923Z,101798.53
2023-08-22T18:17:57.741Z,101811.88
2023-08-22T18:20:24.373Z,101814.19
2023-08-22T18:22:51.102Z,101810.91
2023-08-22T18:25:17.623Z,101818.75
2023-08-22T18:27:44.538Z,101834.16
2023-08-22T18:30:11.707Z,101826.06
2023-08-22T18:32:38.352Z,101842.09
2023-08-22T18:35:05.354Z,101841.28
2023-08-22T18:37:31.896Z,101847.88
2023-08-22T18:39:58.372Z,101851.63
2023-08-22T18:42:26.480Z,101856.59
2023-08-22T18:44:54.955Z,101854.91
2023-08-22T18:47:21.432Z,101864.22
2023-08-22T18:49:47.984Z,101863.19
2023-08-22T18:52:14.630Z,101863.38
2023-08-22T18:54:41.211Z,101860.25
2023-08-22T18:57:08.692Z,101868.72
2023-08-22T18:59:35.382Z,101865.38
2023-08-22T19:02:02.125Z,101867.66
2023-08-22T19:04:28.639Z,101868.03
2023-08-22T19:06:55.143Z,101868.03
2023-08-22T19:09:21.784Z,101865.94
2023-08-22T19:11:48.321Z,101875.66
2023-08-22T19:14:14.934Z,101868.22
2023-08-22T19:16:41.428Z,101870.81
2023-08-22T19:19:08.202Z,101869.94
2023-08-22T19:21:34.992Z,101873.00
2023-08-22T19:24:01.938Z,101875.41
2023-08-22T19:26:28.585Z,101879.28
2023-08-22T19:28:55.741Z,101874.06
2023-08-22T19:31:22.425Z,101884.38
2023-08-22T19:33:48.994Z,101881.44
2023-08-22T19:36:15.499Z,101881.41
2023-08-22T19:38:42.553Z,101886.44
2023-08-22T19:41:09.135Z,101885.00
2023-08-22T19:43:35.658Z,101885.94
2023-08-22T19:46:02.167Z,101877.66
2023-08-22T19:48:28.927Z,101872.28
2023-08-22T19:50:55.465Z,101885.28
2023-08-22T19:53:22.094Z,101882.50
2023-08-22T19:55:48.770Z,101879.44
2023-08-22T19:58:15.726Z,101882.03
2023-08-22T20:00:44.857Z,101886.13
2023-08-22T20:03:11.811Z,101884.19
2023-08-22T20:05:38.416Z,101880.25
2023-08-22T20:08:05.183Z,101885.09
2023-08-22T20:10:34.021Z,101884.72
2023-08-22T20:13:00.794Z,101884.72
2023-08-22T20:15:27.264Z,101889.44
2023-08-22T20:17:55.242Z,101879.66
2023-08-22T20:20:21.918Z,101888.56
2023-08-22T20:22:49.951Z,101889.72
2023-08-22T20:25:16.878Z,101903.53
2023-08-22T20:27:43.837Z,101899.00
2023-08-22T20:30:11.331Z,101897.44
2023-08-22T20:32:37.802Z,101907.59
2023-08-22T20:35:04.603Z,101903.38
2023-08-22T20:37:31.043Z,101910.00
2023-08-22T20:39:57.765Z,101905.94
2023-08-22T20:42:24.333Z,101905.50
2023-08-22T20:44:51.009Z,101902.63
2023-08-22T20:47:17.587Z,101906.22
2023-08-22T20:49:44.721Z,101906.66
2023-08-22T20:52:11.253Z,101905.38
2023-08-22T20:54:38.012Z,101913.13
2023-08-22T20:57:04.696Z,101907.31
2023-08-22T20:59:31.198Z,101908.47
2023-08-22T21:01:57.686Z,101906.81
2023-08-22T21:04:24.481Z,101908.88
2023-08-22T21:06:51.050Z,101906.25
2023-08-22T21:09:17.558Z,101907.63
2023-08-22T21:11:44.010Z,101912.06
2023-08-22T21:14:10.758Z,101908.22
2023-08-22T21:16:37.480Z,101911.63
2023-08-22T21:19:04.064Z,101915.84
2023-08-22T21:21:30.527Z,101925.59
2023-08-22T21:23:57.258Z,101928.13
2023-08-22T21:26:23.746Z,101923.22
2023-08-22T21:28:50.596Z,101922.75
2023-08-22T21:31:17.118Z,101925.25
2023-08-22T21:33:43.665Z,101931.91
2023-08-22T21:36:12.597Z,101933.47
2023-08-22T21:38:39.137Z,101937.94
2023-08-22T21:41:05.646Z,101941.69
2023-08-22T21:43:32.131Z,101941.59
2023-08-22T21:45:59.234Z,101942.13
2023-08-22T21:48:25.998Z,101932.78
2023-08-22T21:50:52.828Z,101923.44
2023-08-22T21:53:19.328Z,101929.69
2023-08-22T21:55:45.837Z,101926.19
2023-08-22T21:58:12.586Z,101930.59
2023-08-22T22:00:40.492Z,101942.31
2023-08-22T22:03:07.251Z,101951.34
2023-08-22T22:05:33.846Z,101947.13
2023-08-22T22:08:00.297Z,101944.78
2023-08-22T22:10:27.491Z,101932.41
2023-08-22T22:12:53.945Z,101927.38
2023-08-22T22:15:20.488Z,101932.28
2023-08-22T22:17:47.214Z,101930.28
2023-08-22T22:20:14.253Z,101936.66
2023-08-22T22:22:40.903Z,101938.31
2023-08-22T22:25:07.980Z,101926.81
2023-08-22T22:27:34.463Z,101929.16
2023-08-22T22:30:01.206Z,101922.81
2023-08-22T22:32:27.683Z,101926.31
2023-08-22T22:34:54.215Z,101929.41
2023-08-22T22:37:21.699Z,101930.94
2023-08-22T22:39:48.626Z,101933.16
2023-08-22T22:42:15.324Z,101927.28
2023-08-22T22:44:41.809Z,101922.31
2023-08-22T22:47:08.304Z,101923.66
2023-08-22T22:49:35.150Z,101923.66
2023-08-22T22:52:01.703Z,101922.88
2023-08-22T22:54:28.295Z,101930.75
2023-08-22T22:56:54.791Z,101938.50
2023-08-22T22:59:21.372Z,101941.69
2023-08-22T23:01:49.979Z,101938.19
2023-08-22T23:04:16.758Z,101933.22
2023-08-22T23:06:43.494Z,101928.66
2023-08-22T23:09:10.039Z,101924.00
2023-08-22T23:11:39.459Z,101930.66
2023-08-22T23:14:21.693Z,101925.31
2023-08-22T23:16:48.329Z,101929.81
2023-08-22T23:19:14.855Z,101922.66
2023-08-22T23:21:41.629Z,101924.50
2023-08-22T23:24:08.179Z,101932.66
2023-08-22T23:26:34.918Z,101933.22
2023-08-22T23:29:01.500Z,101932.84
2023-08-22T23:31:28.111Z,101928.84
2023-08-22T23:33:57.221Z,101930.00
2023-08-22T23:36:24.041Z,101923.19
2023-08-22T23:38:50.555Z,101927.69
2023-08-22T23:41:17.567Z,101924.38
2023-08-22T23:43:44.103Z,101924.38
2023-08-22T23:46:10.779Z,101923.66
2023-08-22T23:48:37.251Z,101929.38
2023-08-22T23:51:16.304Z,101921.00
2023-08-22T23:53:44.261Z,101912.69
2023-08-22T23:56:10.962Z,101919.19
2023-08-22T23:58:37.419Z,101912.88
